Time;durP1;ratioP1;P1;durP2;ratioP2;P2;SDS_P1;SDS_P2;PMS_P1;PMS_P2;Temp;Humidity;BMP_temperature;BMP_pressure;BME280_temperature;BME280_humidity;BME280_pressure;Samples;Min_cycle;Max_cycle;Signal;HPM_P1;HPM_P2
2021/03/23 00:01:37;;;;;;;46.33;17.50;;;;;;;4.13;54.11;100639.31;4892264;28;97759;-78
2021/03/23 00:04:04;;;;;;;48.43;18.87;;;;;;;4.14;53.76;100641.06;4863429;28;96929;-78
2021/03/23 00:06:30;;;;;;;45.90;17.10;;;;;;;4.05;54.14;100639.34;4864352;28;96834;-79
2021/03/23 00:08:58;;;;;;;35.57;14.43;;;;;;;3.92;54.93;100635.88;4849116;28;98310;-79
2021/03/23 00:11:32;;;;;;;35.27;13.30;;;;;;;3.87;54.79;100632.47;4863765;28;101829;-79
2021/03/23 00:14:00;;;;;;;29.40;11.87;;;;;;;3.85;54.83;100627.25;4849843;29;96987;-78
2021/03/23 00:16:28;;;;;;;30.37;11.67;;;;;;;3.88;54.77;100621.19;4863792;28;96854;-78
2021/03/23 00:18:54;;;;;;;26.63;10.90;;;;;;;3.95;54.58;100627.22;4846923;28;101376;-78
2021/03/23 00:21:21;;;;;;;26.03;11.20;;;;;;;3.93;54.81;100618.59;4861660;28;101135;-80
2021/03/23 00:23:46;;;;;;;28.53;12.00;;;;;;;3.98;54.61;100622.03;4872329;28;96909;-78
2021/03/23 00:26:14;;;;;;;29.93;13.10;;;;;;;3.97;54.57;100612.50;4856293;28;96873;-79
2021/03/23 00:28:46;;;;;;;30.50;12.37;;;;;;;3.91;54.75;100617.72;4856834;28;101909;-82
2021/03/23 00:31:11;;;;;;;33.20;12.23;;;;;;;3.83;54.73;100609.94;4844104;28;101866;-84
2021/03/23 00:33:37;;;;;;;24.37;10.70;;;;;;;3.75;55.29;100614.28;4840643;28;96975;-78
2021/03/23 00:36:03;;;;;;;28.23;11.40;;;;;;;3.71;55.11;100616.00;4856323;28;97059;-79
2021/03/23 00:38:30;;;;;;;28.90;12.77;;;;;;;3.73;55.16;100622.09;4856600;28;101292;-80
2021/03/23 00:40:56;;;;;;;30.53;12.70;;;;;;;3.74;55.10;100616.00;4843903;28;100464;-80
2021/03/23 00:43:22;;;;;;;28.03;10.73;;;;;;;3.78;54.90;100616.88;4851775;28;97802;-80
2021/03/23 00:45:48;;;;;;;29.20;12.20;;;;;;;3.76;55.45;100619.47;4840244;28;97641;-79
2021/03/23 00:48:16;;;;;;;30.43;12.03;;;;;;;3.75;55.29;100612.56;4840842;28;101742;-78
2021/03/23 00:50:42;;;;;;;31.30;11.07;;;;;;;3.77;55.45;100626.38;4843400;28;102877;-84
2021/03/23 00:53:09;;;;;;;29.00;10.43;;;;;;;3.79;55.58;100622.06;4872514;28;96630;-81
2021/03/23 00:55:34;;;;;;;25.57;9.77;;;;;;;3.80;55.46;100625.53;4859566;28;98042;-78
2021/03/23 00:58:00;;;;;;;23.50;10.07;;;;;;;3.81;55.15;100622.94;4866177;28;101463;-78
2021/03/23 01:00:27;;;;;;;26.20;10.93;;;;;;;3.80;55.65;100628.13;4856639;28;100925;-78
2021/03/23 01:02:52;;;;;;;22.63;9.73;;;;;;;3.84;55.38;100615.16;4856316;28;97240;-79
2021/03/23 01:05:20;;;;;;;26.03;9.97;;;;;;;3.91;55.05;100620.31;4869114;28;97025;-78
2021/03/23 01:07:46;;;;;;;21.23;8.67;;;;;;;3.87;54.87;100616.88;4855394;28;97971;-84
2021/03/23 01:10:14;;;;;;;18.57;8.80;;;;;;;3.80;55.57;100612.53;4843229;28;101464;-79
2021/03/23 01:12:40;;;;;;;25.63;8.97;;;;;;;3.86;55.03;100620.31;4856251;28;96782;-78
2021/03/23 01:15:09;;;;;;;19.07;8.20;;;;;;;3.83;55.44;100617.72;4855767;28;96933;-78
2021/03/23 01:17:34;;;;;;;16.30;8.80;;;;;;;3.80;55.18;100617.72;4846535;29;101507;-78
2021/03/23 01:20:00;;;;;;;18.40;8.47;;;;;;;3.72;55.42;100611.69;4855320;28;98512;-78
2021/03/23 01:22:25;;;;;;;19.07;8.93;;;;;;;3.76;55.49;100613.44;4864708;28;96790;-78
2021/03/23 01:24:51;;;;;;;20.37;9.07;;;;;;;3.69;55.81;100616.88;4869151;28;97027;-77
2021/03/23 01:27:16;;;;;;;19.60;8.60;;;;;;;3.68;55.57;100615.16;4840199;28;101278;-78
2021/03/23 01:29:42;;;;;;;21.77;8.90;;;;;;;3.63;55.93;100610.81;4857063;28;101527;-84
2021/03/23 01:32:08;;;;;;;20.13;8.10;;;;;;;3.69;55.74;100609.09;4845739;28;97458;-78
2021/03/23 01:34:34;;;;;;;18.83;8.97;;;;;;;3.62;55.63;100603.06;4840798;28;97235;-78
2021/03/23 01:36:59;;;;;;;17.17;9.23;;;;;;;3.68;56.02;100608.22;4882654;28;97366;-78
2021/03/23 01:39:25;;;;;;;20.60;8.23;;;;;;;3.68;55.63;100600.44;4865549;28;98091;-78
2021/03/23 01:41:50;;;;;;;23.10;8.47;;;;;;;3.71;55.81;100605.63;4877670;28;96639;-81
2021/03/23 01:44:16;;;;;;;21.70;8.93;;;;;;;3.68;56.03;100608.22;4860433;28;96886;-81
2021/03/23 01:46:42;;;;;;;25.33;9.60;;;;;;;3.67;56.37;100613.44;4858485;28;100985;-81
2021/03/23 01:49:24;;;;;;;27.23;9.47;;;;;;;3.66;56.17;100614.28;4879132;28;97737;-80
2021/03/23 01:51:50;;;;;;;;;;;;;;;3.63;55.93;100609.97;4843372;28;96867;-82
2021/03/23 01:54:46;;;;;;;24.37;8.10;;;;;;;3.62;55.80;100605.66;4877083;28;97036;-82
2021/03/23 01:57:12;;;;;;;25.30;8.77;;;;;;;3.59;56.12;100609.09;4908269;28;98185;-81
2021/03/23 01:59:43;;;;;;;20.93;8.53;;;;;;;3.60;55.78;100605.63;4885643;28;97181;-81
2021/03/23 02:02:09;;;;;;;22.30;9.13;;;;;;;3.60;56.16;100603.03;4871576;28;97157;-84
2021/03/23 02:04:34;;;;;;;17.53;8.00;;;;;;;3.61;56.05;100604.78;4859908;28;96852;-81
2021/03/23 02:07:00;;;;;;;19.63;8.37;;;;;;;3.61;56.19;100609.13;4858500;28;101015;-80
2021/03/23 02:09:32;;;;;;;19.73;7.60;;;;;;;3.54;56.41;100607.38;4852011;28;102537;-80
2021/03/23 02:12:00;;;;;;;19.83;8.90;;;;;;;3.56;56.28;100606.50;4876667;28;96754;-81
2021/03/23 02:14:33;;;;;;;20.50;9.17;;;;;;;3.51;56.36;100602.19;4884163;28;97118;-81
2021/03/23 02:17:14;;;;;;;16.83;6.80;;;;;;;3.54;56.13;100599.59;4845587;28;98189;-81
2021/03/23 02:19:39;;;;;;;22.77;7.93;;;;;;;3.51;56.64;100597.84;4874697;28;101254;-80
2021/03/23 02:22:05;;;;;;;14.33;7.03;;;;;;;3.51;56.40;100603.06;4851246;28;97753;-81
2021/03/23 02:24:30;;;;;;;16.53;7.33;;;;;;;3.50;56.33;100601.34;4894007;28;96803;-78
2021/03/23 02:26:56;;;;;;;18.20;8.10;;;;;;;3.50;56.44;100606.53;4873787;28;98669;-78
2021/03/23 02:29:21;;;;;;;15.73;6.43;;;;;;;3.48;56.52;100603.06;4855344;28;101434;-81
2021/03/23 02:31:52;;;;;;;18.97;6.53;;;;;;;3.47;56.42;100601.34;4858237;28;96733;-84
2021/03/23 02:34:21;;;;;;;16.23;7.00;;;;;;;3.38;56.48;100599.59;4872142;28;96741;-78
2021/03/23 02:36:48;;;;;;;22.27;7.77;;;;;;;3.40;56.71;100595.28;4864850;28;101617;-85
2021/03/23 02:39:17;;;;;;;16.67;6.87;;;;;;;3.40;56.70;100602.19;4863878;28;101147;-78
2021/03/23 02:41:43;;;;;;;19.57;7.37;;;;;;;3.39;56.97;100601.31;4873885;28;97926;-78
2021/03/23 02:44:09;;;;;;;22.37;7.10;;;;;;;3.38;57.07;100601.34;4860924;28;97230;-78
2021/03/23 02:46:36;;;;;;;14.40;6.43;;;;;;;3.30;57.48;100603.94;4850254;29;98032;-78
2021/03/23 02:49:02;;;;;;;16.20;7.30;;;;;;;3.32;57.60;100602.22;4851604;28;101745;-78
2021/03/23 02:51:28;;;;;;;14.87;6.73;;;;;;;3.28;57.65;100597.84;4874106;28;97186;-78
2021/03/23 02:53:53;;;;;;;18.10;7.77;;;;;;;3.18;58.13;100598.75;4845258;28;96920;-80
2021/03/23 02:56:19;;;;;;;17.40;7.63;;;;;;;3.21;57.81;100600.47;4850385;29;100956;-78
2021/03/23 02:58:46;;;;;;;17.30;6.97;;;;;;;3.19;58.77;100600.47;4868235;28;101648;-81
2021/03/23 03:01:13;;;;;;;16.77;7.17;;;;;;;3.14;58.48;100597.00;4861186;28;97013;-83
2021/03/23 03:03:38;;;;;;;16.40;6.63;;;;;;;3.16;58.46;100600.47;4878316;28;97424;-85
2021/03/23 03:06:05;;;;;;;15.13;5.80;;;;;;;3.21;58.38;100603.94;4866775;28;97437;-81
2021/03/23 03:08:31;;;;;;;18.77;7.17;;;;;;;3.22;58.72;100605.66;4846204;28;101673;-80
2021/03/23 03:10:57;;;;;;;20.87;6.50;;;;;;;3.27;58.24;100614.31;4850166;28;97364;-78
2021/03/23 03:13:23;;;;;;;17.07;7.90;;;;;;;3.30;58.16;100603.06;4845975;28;97054;-78
2021/03/23 03:15:51;;;;;;;19.00;7.37;;;;;;;3.33;58.11;100608.25;4841806;28;101581;-79
2021/03/23 03:18:17;;;;;;;21.43;7.80;;;;;;;3.37;58.14;100605.69;4873645;28;101633;-79
2021/03/23 03:20:43;;;;;;;19.70;7.07;;;;;;;3.35;58.45;100599.59;4876666;28;96889;-78
2021/03/23 03:23:09;;;;;;;18.00;7.23;;;;;;;3.43;57.96;100602.19;4860388;28;97035;-78
2021/03/23 03:25:35;;;;;;;17.57;7.70;;;;;;;3.41;58.21;100606.53;4851126;28;102045;-78
2021/03/23 03:28:01;;;;;;;14.23;7.13;;;;;;;3.40;58.51;100602.19;4873304;28;101739;-78
2021/03/23 03:30:30;;;;;;;16.10;6.77;;;;;;;3.45;58.07;100590.09;4842371;28;96757;-78
2021/03/23 03:32:57;;;;;;;18.50;7.63;;;;;;;3.52;58.18;100590.94;4873041;28;96942;-78
2021/03/23 03:35:25;;;;;;;15.73;6.67;;;;;;;3.54;58.43;100594.41;4841749;28;101689;-79
2021/03/23 03:37:50;;;;;;;24.60;8.40;;;;;;;3.48;58.03;100597.84;4877327;28;97916;-80
2021/03/23 03:40:31;;;;;;;18.90;7.87;;;;;;;3.45;58.73;100595.28;4865907;28;97147;-80
2021/03/23 03:42:57;;;;;;;24.53;9.43;;;;;;;3.43;58.76;100597.00;4857436;28;96941;-80
2021/03/23 03:45:25;;;;;;;21.77;8.43;;;;;;;3.44;58.83;100587.50;4870485;28;97998;-80
2021/03/23 03:47:52;;;;;;;24.17;9.40;;;;;;;3.49;59.26;100596.13;4891787;28;101480;-81
2021/03/23 03:50:19;;;;;;;24.90;8.97;;;;;;;3.59;59.05;100592.66;4847988;28;97216;-80
2021/03/23 03:52:45;;;;;;;17.60;7.87;;;;;;;3.60;59.22;100595.25;4863920;28;97028;-85
2021/03/23 03:55:14;;;;;;;21.37;7.97;;;;;;;3.55;59.23;100598.72;4864459;28;98480;-80
2021/03/23 03:57:40;;;;;;;19.77;7.30;;;;;;;3.53;59.66;100603.06;4886228;28;97908;-80
2021/03/23 04:00:06;;;;;;;15.07;7.53;;;;;;;3.51;59.67;100610.84;4856783;28;96743;-82
2021/03/23 04:02:37;;;;;;;26.10;8.18;;;;;;;3.49;59.92;100607.41;4844086;28;96674;-80
2021/03/23 04:05:05;;;;;;;14.80;6.60;;;;;;;3.51;59.94;100600.44;4856924;28;101737;-80
2021/03/23 04:07:31;;;;;;;20.13;7.37;;;;;;;3.57;59.90;100616.03;4892541;28;98238;-80
2021/03/23 04:09:57;;;;;;;20.73;7.23;;;;;;;3.60;59.90;100607.38;4891758;28;97161;-80
2021/03/23 04:12:22;;;;;;;21.37;8.63;;;;;;;3.68;59.87;100612.56;4869445;28;96934;-80
2021/03/23 04:14:48;;;;;;;21.77;7.60;;;;;;;3.74;59.49;100616.00;4869799;28;101646;-84
2021/03/23 04:17:14;;;;;;;23.87;8.33;;;;;;;3.76;59.96;100611.69;4866741;28;98867;-79
2021/03/23 04:19:39;;;;;;;22.33;8.20;;;;;;;3.71;59.70;100604.78;4879919;28;96788;-80
2021/03/23 04:22:06;;;;;;;24.40;8.00;;;;;;;3.87;59.33;100590.91;4842155;28;97274;-78
2021/03/23 04:24:32;;;;;;;18.73;7.17;;;;;;;3.84;59.12;100603.91;4856619;28;101085;-79
2021/03/23 04:26:58;;;;;;;16.67;6.30;;;;;;;3.85;59.60;100619.47;4875631;28;97510;-79
2021/03/23 04:29:25;;;;;;;19.57;6.57;;;;;;;3.92;59.32;100616.84;4845772;28;96730;-79
2021/03/23 04:31:50;;;;;;;17.20;6.33;;;;;;;3.96;59.18;100624.66;4859173;28;96895;-80
2021/03/23 04:34:17;;;;;;;15.60;6.70;;;;;;;3.96;59.33;100629.84;4875731;28;98325;-79
2021/03/23 04:36:43;;;;;;;20.17;7.00;;;;;;;3.93;59.85;100634.19;4876295;28;97378;-79
2021/03/23 04:39:11;;;;;;;21.00;8.67;;;;;;;4.00;59.73;100639.34;4875142;28;96799;-78
2021/03/23 04:41:37;;;;;;;19.17;7.93;;;;;;;4.00;59.48;100643.69;4863808;28;97177;-78
2021/03/23 04:44:04;;;;;;;18.77;7.10;;;;;;;4.01;59.60;100641.06;4861574;28;101952;-78
2021/03/23 04:46:30;;;;;;;20.20;7.00;;;;;;;4.02;59.45;100639.34;4856871;28;101234;-78
2021/03/23 04:48:56;;;;;;;17.47;7.70;;;;;;;4.00;59.67;100648.88;4869448;28;97548;-78
2021/03/23 04:51:25;;;;;;;17.97;7.13;;;;;;;3.93;59.58;100635.03;4875475;28;97032;-78
2021/03/23 04:53:58;;;;;;;17.90;6.83;;;;;;;3.94;59.99;100641.09;4876445;28;101308;-79
2021/03/23 04:56:27;;;;;;;16.77;6.27;;;;;;;3.92;60.07;100643.69;4865437;28;101143;-79
2021/03/23 04:58:53;;;;;;;16.17;6.60;;;;;;;4.01;59.92;100648.84;4856716;28;96782;-80
2021/03/23 05:01:18;;;;;;;20.47;6.90;;;;;;;4.05;60.13;100641.94;4857047;28;97050;-79
2021/03/23 05:03:44;;;;;;;16.97;7.07;;;;;;;4.12;59.89;100642.78;4856071;28;101342;-78
2021/03/23 05:06:11;;;;;;;10.63;6.40;;;;;;;4.11;59.70;100644.53;4883196;28;98061;-80
2021/03/23 05:08:42;;;;;;;16.80;6.97;;;;;;;4.18;59.81;100643.63;4856598;28;96720;-80
2021/03/23 05:11:10;;;;;;;16.33;6.63;;;;;;;4.13;59.88;100642.78;4867236;28;96989;-81
2021/03/23 05:13:36;;;;;;;15.87;6.80;;;;;;;4.05;60.24;100648.00;4861710;28;101610;-78
2021/03/23 05:16:01;;;;;;;22.30;7.00;;;;;;;4.18;59.99;100646.22;4874339;28;99519;-78
2021/03/23 05:18:27;;;;;;;16.83;6.87;;;;;;;4.21;60.13;100664.41;4875249;28;96840;-78
2021/03/23 05:20:53;;;;;;;23.30;8.27;;;;;;;4.21;60.05;100660.94;4867786;28;96744;-78
2021/03/23 05:23:20;;;;;;;18.90;6.77;;;;;;;4.26;60.22;100670.47;4862938;28;97871;-78
2021/03/23 05:25:46;;;;;;;14.43;7.00;;;;;;;4.29;60.03;100682.59;4878443;28;101370;-78
2021/03/23 05:28:12;;;;;;;16.60;7.67;;;;;;;4.32;60.00;100672.19;4875432;28;96718;-79
2021/03/23 05:30:39;;;;;;;17.20;7.17;;;;;;;4.30;60.23;100674.81;4850575;29;97030;-78
2021/03/23 05:33:05;;;;;;;21.00;6.40;;;;;;;4.23;60.64;100672.22;4871911;28;101701;-78
2021/03/23 05:35:31;;;;;;;21.83;7.90;;;;;;;4.20;60.51;100683.47;4849534;29;101455;-78
2021/03/23 05:37:57;;;;;;;18.37;7.13;;;;;;;4.17;60.69;100665.28;4872174;28;97200;-78
2021/03/23 05:40:27;;;;;;;16.00;7.27;;;;;;;4.20;60.71;100667.88;4878651;28;96944;-78
2021/03/23 05:43:15;;;;;;;25.30;7.60;;;;;;;4.19;61.20;100679.16;4857749;28;101383;-78
2021/03/23 05:45:42;;;;;;;19.07;7.33;;;;;;;4.28;60.74;100666.13;4859949;28;101712;-78
2021/03/23 05:48:16;;;;;;;19.47;7.37;;;;;;;4.35;60.65;100669.56;4854475;28;97532;-79
2021/03/23 05:50:56;;;;;;;19.27;8.10;;;;;;;4.38;60.77;100672.16;4858875;28;96799;-80
2021/03/23 05:53:29;;;;;;;20.40;6.43;;;;;;;4.36;60.67;100668.69;4859284;28;101094;-78
2021/03/23 05:55:58;;;;;;;22.70;8.07;;;;;;;4.38;61.00;100676.50;4842944;28;101288;-78
2021/03/23 05:58:25;;;;;;;21.87;8.23;;;;;;;4.36;61.04;100679.09;4886772;28;97199;-78
2021/03/23 06:00:56;;;;;;;21.70;8.00;;;;;;;4.50;60.92;100681.66;4858692;28;96955;-83
2021/03/23 06:03:42;;;;;;;17.50;7.40;;;;;;;4.47;61.49;100687.72;4862506;28;100971;-78
2021/03/23 06:06:25;;;;;;;17.17;7.17;;;;;;;4.49;61.67;100682.53;4872197;28;98974;-78
2021/03/23 06:08:51;;;;;;;20.60;7.50;;;;;;;4.58;61.58;100679.03;4856355;28;96853;-82
2021/03/23 06:11:38;;;;;;;28.37;8.40;;;;;;;4.59;61.80;100685.94;4869051;28;96897;-78
2021/03/23 06:14:45;;;;;;;19.17;6.50;;;;;;;4.59;61.82;100689.41;4870657;28;101781;-78
2021/03/23 06:17:35;;;;;;;20.03;7.63;;;;;;;4.57;61.92;100688.56;4877285;28;100034;-77
2021/03/23 06:20:16;;;;;;;22.90;7.47;;;;;;;4.62;61.97;100685.94;4834031;28;97200;-77
2021/03/23 06:22:50;;;;;;;23.67;8.13;;;;;;;4.71;61.33;100685.91;4844456;29;97221;-78
2021/03/23 06:25:36;;;;;;;25.83;9.13;;;;;;;4.72;62.09;100685.91;4865930;28;101083;-78
2021/03/23 06:28:24;;;;;;;21.50;8.27;;;;;;;4.78;61.73;100694.56;4876281;28;101466;-78
2021/03/23 06:30:50;;;;;;;28.27;10.23;;;;;;;4.82;61.79;100697.13;4875198;28;96608;-82
2021/03/23 06:33:20;;;;;;;16.67;8.10;;;;;;;4.93;61.49;100702.28;4858118;28;96711;-78
2021/03/23 06:35:50;;;;;;;15.57;6.37;;;;;;;5.05;61.27;100697.00;4847565;28;101373;-79
2021/03/23 06:38:27;;;;;;;19.93;7.37;;;;;;;5.30;60.49;100692.53;4862153;28;101690;-78
2021/03/23 06:41:24;;;;;;;16.93;6.77;;;;;;;5.57;59.91;100693.22;4852830;28;96866;-81
2021/03/23 06:44:12;;;;;;;17.53;7.23;;;;;;;6.11;58.97;100706.69;4873284;28;97279;-86
2021/03/23 06:46:41;;;;;;;18.00;7.10;;;;;;;6.39;57.74;100694.22;4845056;28;101418;-79
2021/03/23 06:49:09;;;;;;;16.10;6.33;;;;;;;6.64;57.72;100707.00;4854039;28;101385;-79
2021/03/23 06:51:36;;;;;;;13.23;6.27;;;;;;;6.70;57.13;100714.75;4845018;28;97424;-79
2021/03/23 06:54:29;;;;;;;16.93;6.10;;;;;;;6.53;58.45;100705.34;4850651;28;97379;-79
2021/03/23 06:57:03;;;;;;;14.80;6.83;;;;;;;6.44;58.23;100704.59;4873943;28;101150;-78
2021/03/23 06:59:31;;;;;;;14.57;6.93;;;;;;;6.39;58.47;100716.81;4880336;28;97908;-79
2021/03/23 07:02:05;;;;;;;18.53;6.77;;;;;;;6.42;58.83;100708.97;4854262;28;96767;-80
2021/03/23 07:04:39;;;;;;;23.97;7.57;;;;;;;6.28;59.06;100714.31;4841615;28;96965;-78
2021/03/23 07:07:15;;;;;;;17.33;7.60;;;;;;;6.27;59.49;100716.06;4855693;28;101887;-79
2021/03/23 07:10:12;;;;;;;21.13;7.90;;;;;;;6.20;59.66;100727.44;4854675;28;101244;-78
2021/03/23 07:12:44;;;;;;;19.70;8.37;;;;;;;6.13;60.08;100720.53;4862252;28;96941;-78
2021/03/23 07:15:26;;;;;;;18.77;7.57;;;;;;;6.12;60.15;100724.03;4856765;28;96892;-83
2021/03/23 07:17:54;;;;;;;19.10;8.25;;;;;;;6.10;59.90;100715.38;4858180;28;98480;-85
2021/03/23 07:20:41;;;;;;;20.77;8.17;;;;;;;6.06;60.50;100718.88;4858208;28;101972;-82
2021/03/23 07:23:46;;;;;;;17.20;7.80;;;;;;;6.02;61.11;100722.38;4879199;28;97396;-82
2021/03/23 07:26:27;;;;;;;21.17;8.90;;;;;;;6.12;62.60;100724.03;4842895;28;96861;-84
2021/03/23 07:29:10;;;;;;;15.00;7.55;;;;;;;6.07;61.86;100724.06;4870370;28;101832;-85
2021/03/23 07:31:48;;;;;;;17.80;7.90;;;;;;;5.99;62.75;100725.03;4871606;28;101760;-81
2021/03/23 07:34:27;;;;;;;18.20;8.00;;;;;;;5.97;62.84;100730.25;4871748;28;97243;-83
2021/03/23 07:37:03;;;;;;;19.17;7.87;;;;;;;6.02;62.88;100725.00;4843511;28;97362;-83
2021/03/23 07:39:49;;;;;;;14.60;8.07;;;;;;;6.12;63.32;100729.25;4870608;28;98288;-83
2021/03/23 07:42:47;;;;;;;19.37;8.17;;;;;;;6.21;63.33;100729.16;4851623;28;101873;-84
2021/03/23 07:45:28;;;;;;;18.27;8.47;;;;;;;6.16;64.18;100725.72;4833511;28;97041;-83
2021/03/23 07:48:17;;;;;;;16.53;8.23;;;;;;;6.05;64.85;100732.78;4847197;28;97294;-84
2021/03/23 07:50:46;;;;;;;16.23;8.47;;;;;;;6.04;65.02;100738.88;4865817;28;98536;-83
2021/03/23 07:53:21;;;;;;;20.13;7.93;;;;;;;5.95;65.17;100734.63;4853913;28;98470;-83
2021/03/23 07:55:49;;;;;;;21.90;9.53;;;;;;;6.11;64.93;100738.81;4869505;28;98379;-83
2021/03/23 07:58:30;;;;;;;15.30;9.00;;;;;;;6.13;65.32;100738.78;4847856;28;97257;-83
2021/03/23 08:01:02;;;;;;;19.10;9.47;;;;;;;6.13;65.38;100736.19;4860031;28;101614;-82
2021/03/23 08:03:57;;;;;;;16.77;7.07;;;;;;;5.99;66.02;100740.66;4863456;28;101597;-84
2021/03/23 08:06:50;;;;;;;18.00;8.17;;;;;;;6.06;65.85;100737.13;4870296;28;96807;-83
2021/03/23 08:09:23;;;;;;;13.27;7.37;;;;;;;5.98;66.55;100741.53;4867278;28;98414;-85
2021/03/23 08:12:13;;;;;;;16.60;7.67;;;;;;;5.98;66.41;100745.00;4852186;28;101432;-85
2021/03/23 08:14:53;;;;;;;13.67;6.83;;;;;;;5.94;66.52;100745.06;4867546;28;99093;-85
2021/03/23 08:17:42;;;;;;;13.07;7.10;;;;;;;6.07;66.42;100741.47;4862730;28;97566;-82
2021/03/23 08:20:26;;;;;;;12.77;6.87;;;;;;;6.12;66.19;100747.50;4867682;28;96754;-83
2021/03/23 08:23:14;;;;;;;15.87;7.50;;;;;;;5.96;66.79;100751.09;4884548;28;98438;-80
2021/03/23 08:26:03;;;;;;;16.57;7.20;;;;;;;5.93;67.29;100745.88;4853807;28;101298;-79
2021/03/23 08:28:59;;;;;;;15.03;7.60;;;;;;;6.04;67.28;100755.38;4867925;28;97360;-81
2021/03/23 08:32:02;;;;;;;14.87;6.90;;;;;;;6.19;67.06;100749.16;4862418;28;97241;-81
2021/03/23 08:34:45;;;;;;;14.40;7.53;;;;;;;6.25;66.66;100758.66;4870102;28;98037;-81
2021/03/23 08:37:54;;;;;;;17.60;8.63;;;;;;;6.22;67.32;100758.69;4871526;28;97964;-84
2021/03/23 08:40:32;;;;;;;13.40;7.10;;;;;;;6.22;66.67;100756.94;4860774;28;96922;-84
2021/03/23 08:42:58;;;;;;;13.20;7.67;;;;;;;6.21;67.15;100760.44;4862802;28;97566;-82
2021/03/23 08:45:30;;;;;;;12.43;7.17;;;;;;;6.13;66.98;100763.13;4841327;28;101631;-82
2021/03/23 08:48:22;;;;;;;13.75;6.35;;;;;;;6.32;66.18;100765.56;4859021;28;98499;-81
2021/03/23 08:50:48;;;;;;;15.43;7.55;;;;;;;6.32;66.75;100760.34;4850583;28;97291;-80
2021/03/23 08:53:34;;;;;;;15.50;7.83;;;;;;;6.32;67.30;100766.44;4835930;28;97972;-79
2021/03/23 08:56:05;;;;;;;12.50;6.50;;;;;;;6.32;67.24;100765.56;4875658;28;101655;-80
2021/03/23 08:58:44;;;;;;;12.90;7.07;;;;;;;6.36;66.88;100767.25;4849607;28;98527;-81
2021/03/23 09:01:26;;;;;;;17.13;7.87;;;;;;;6.32;67.14;100776.00;4881127;28;97073;-82
2021/03/23 09:03:53;;;;;;;12.73;6.80;;;;;;;6.45;67.41;100768.91;4868736;28;98563;-82
2021/03/23 09:06:23;;;;;;;14.07;7.87;;;;;;;6.46;67.39;100766.31;4870649;28;102111;-83
2021/03/23 09:08:51;;;;;;;16.60;8.10;;;;;;;6.67;67.40;100767.81;4883796;28;101617;-84
2021/03/23 09:12:05;;;;;;;20.40;13.97;;;;;;;6.63;68.75;100773.06;4862189;28;97979;-82
2021/03/23 09:14:33;;;;;;;13.43;8.10;;;;;;;6.56;69.24;100773.13;4854378;28;96990;-81
2021/03/23 09:16:59;;;;;;;14.87;8.70;;;;;;;6.56;68.65;100774.88;4843357;28;98303;-80
2021/03/23 09:19:39;;;;;;;16.73;9.50;;;;;;;6.51;69.14;100779.28;4852110;28;101153;-82
2021/03/23 09:22:07;;;;;;;19.10;9.60;;;;;;;6.45;69.67;100774.13;4881069;28;97733;-88
2021/03/23 09:24:36;;;;;;;14.47;8.30;;;;;;;6.48;69.56;100768.88;4859778;28;98146;-82
2021/03/23 09:27:05;;;;;;;17.23;8.10;;;;;;;6.53;69.60;100775.78;4865772;28;99687;-82
2021/03/23 09:29:30;;;;;;;17.43;8.60;;;;;;;6.50;69.65;100774.97;4841785;28;101437;-82
2021/03/23 09:31:58;;;;;;;17.13;8.30;;;;;;;6.64;69.54;100777.44;4869106;28;96822;-82
2021/03/23 09:35:15;;;;;;;15.20;8.27;;;;;;;6.75;69.10;100775.56;4853338;28;97399;-84
2021/03/23 09:37:56;;;;;;;17.00;9.40;;;;;;;6.78;68.61;100775.53;4852244;28;98856;-82
2021/03/23 09:40:24;;;;;;;14.80;8.70;;;;;;;6.94;68.85;100782.28;4848785;28;100741;-83
2021/03/23 09:43:20;;;;;;;15.10;8.87;;;;;;;6.85;69.07;100779.78;4843727;28;98066;-84
2021/03/23 09:45:49;;;;;;;16.48;9.35;;;;;;;6.91;68.36;100773.63;4833823;28;97258;-85
2021/03/23 09:48:15;;;;;;;13.83;8.03;;;;;;;7.02;68.00;100770.00;4866180;28;98053;-86
2021/03/23 09:50:54;;;;;;;16.73;9.10;;;;;;;7.09;67.99;100770.78;4851246;28;99936;-82
2021/03/23 09:53:42;;;;;;;17.03;9.00;;;;;;;7.13;68.47;100762.06;4848739;28;97384;-83
2021/03/23 09:56:21;;;;;;;15.70;8.40;;;;;;;7.21;67.81;100775.00;4866586;28;97492;-83
2021/03/23 09:58:57;;;;;;;17.13;9.23;;;;;;;7.32;67.92;100770.50;4854534;28;98511;-81
2021/03/23 10:01:25;;;;;;;13.63;8.97;;;;;;;7.23;68.27;100773.25;4849022;28;98397;-83
2021/03/23 10:03:52;;;;;;;15.97;9.60;;;;;;;7.25;67.94;100771.47;4850770;28;97098;-81
2021/03/23 10:06:21;;;;;;;12.10;9.37;;;;;;;7.18;67.98;100768.06;4868171;28;97301;-83
2021/03/23 10:08:54;;;;;;;14.97;9.83;;;;;;;7.16;67.82;100763.78;4877689;28;99845;-81
2021/03/23 10:11:21;;;;;;;14.23;10.07;;;;;;;7.23;67.96;100768.88;4849980;28;101328;-82
2021/03/23 10:13:57;;;;;;;13.17;10.03;;;;;;;7.25;67.90;100772.34;4849976;28;96758;-80
2021/03/23 10:16:32;;;;;;;15.17;9.03;;;;;;;7.28;67.54;100771.44;4851756;28;97575;-80
2021/03/23 10:19:10;;;;;;;11.10;8.47;;;;;;;7.35;67.70;100777.44;4833968;28;101566;-79
2021/03/23 10:21:44;;;;;;;14.57;8.40;;;;;;;7.34;67.30;100770.50;4874579;28;97351;-83
2021/03/23 10:24:19;;;;;;;12.50;7.93;;;;;;;7.38;67.14;100769.56;4835284;28;97370;-80
2021/03/23 10:26:49;;;;;;;13.33;8.13;;;;;;;7.44;67.30;100759.88;4858974;28;96770;-79
2021/03/23 10:29:24;;;;;;;13.25;8.30;;;;;;;7.41;67.19;100769.50;4853430;28;100765;-79
2021/03/23 10:31:53;;;;;;;12.07;7.90;;;;;;;7.44;67.39;100774.69;4869898;28;100654;-79
2021/03/23 10:34:30;;;;;;;14.25;8.48;;;;;;;7.52;66.92;100771.97;4861378;28;97982;-79
2021/03/23 10:37:05;;;;;;;10.57;8.00;;;;;;;7.56;66.79;100761.44;4871009;28;96684;-80
2021/03/23 10:39:35;;;;;;;13.97;7.53;;;;;;;7.45;66.70;100766.84;4875737;28;98284;-81
2021/03/23 10:42:22;;;;;;;13.13;8.50;;;;;;;7.47;67.18;100769.41;4858998;28;98314;-80
2021/03/23 10:44:50;;;;;;;10.80;7.13;;;;;;;7.33;66.94;100763.53;4859423;28;97130;-79
2021/03/23 10:47:31;;;;;;;11.02;7.47;;;;;;;7.39;67.23;100772.16;4873358;28;96935;-79
2021/03/23 10:50:21;;;;;;;12.00;7.55;;;;;;;7.39;66.66;100772.16;4867698;28;100362;-86
2021/03/23 10:52:48;;;;;;;14.77;8.35;;;;;;;7.44;66.68;100777.31;4856051;28;98053;-78
2021/03/23 10:55:19;;;;;;;14.13;8.17;;;;;;;7.34;66.48;100776.56;4836722;28;97946;-80
2021/03/23 10:57:45;;;;;;;9.88;6.82;;;;;;;7.36;66.68;100784.38;4846761;28;96911;-79
2021/03/23 11:00:30;;;;;;;13.88;7.40;;;;;;;7.46;66.44;100783.38;4858416;28;97985;-80
2021/03/23 11:03:32;;;;;;;13.32;7.00;;;;;;;7.50;66.04;100779.81;4858737;28;101951;-80
2021/03/23 11:06:00;;;;;;;11.85;7.07;;;;;;;7.55;66.08;100787.59;4839013;28;97170;-83
2021/03/23 11:08:26;;;;;;;9.05;6.05;;;;;;;7.53;65.95;100785.00;4862996;28;96751;-79
2021/03/23 11:10:56;;;;;;;11.05;6.68;;;;;;;7.59;66.18;100779.72;4838811;28;101299;-80
2021/03/23 11:13:22;;;;;;;9.90;6.65;;;;;;;7.60;65.81;100791.03;4841469;28;101331;-80
2021/03/23 11:15:49;;;;;;;18.85;7.18;;;;;;;7.77;66.65;100775.97;4857165;28;97152;-80
2021/03/23 11:18:33;;;;;;;10.80;6.57;;;;;;;7.80;65.71;100780.28;4871947;28;97281;-80
2021/03/23 11:21:01;;;;;;;11.30;7.38;;;;;;;7.63;65.93;100789.22;4859354;28;98360;-83
2021/03/23 11:23:46;;;;;;;12.02;7.80;;;;;;;7.57;65.98;100789.31;4854621;28;101660;-78
2021/03/23 11:26:21;;;;;;;9.98;7.35;;;;;;;7.56;66.11;100784.97;4871780;28;96751;-81
2021/03/23 11:28:55;;;;;;;10.77;7.47;;;;;;;7.69;66.12;100790.88;4884399;28;96717;-79
2021/03/23 11:31:24;;;;;;;12.60;7.73;;;;;;;7.87;65.58;100784.50;4855505;28;99248;-80
2021/03/23 11:33:50;;;;;;;9.23;7.43;;;;;;;7.99;65.04;100776.47;4856772;28;101631;-79
2021/03/23 11:36:15;;;;;;;12.50;6.90;;;;;;;8.25;64.49;100778.66;4852463;28;97254;-78
2021/03/23 11:38:41;;;;;;;12.77;8.57;;;;;;;8.27;64.46;100771.66;4848363;28;97059;-79
2021/03/23 11:41:35;;;;;;;17.60;9.25;;;;;;;8.34;64.78;100778.50;4852650;28;98518;-80
2021/03/23 11:44:04;;;;;;;10.63;7.23;;;;;;;8.32;64.29;100780.28;4854077;28;97659;-85
2021/03/23 11:46:41;;;;;;;8.95;6.95;;;;;;;8.38;63.66;100781.94;4845153;28;98156;-78